sensor_id;sensor_type;location;lat;lon;timestamp;pressure;altitude;pressure_sealevel;temperature;humidity
61357;BME280;47227;46.752;23.576;2024-01-30T00:00:15;98528.70;;;-3.79;69.14
61357;BME280;47227;46.752;23.576;2024-01-30T00:03:04;98529.94;;;-3.83;68.45
61357;BME280;47227;46.752;23.576;2024-01-30T00:05:32;98526.55;;;-3.86;68.95
61357;BME280;47227;46.752;23.576;2024-01-30T00:08:01;98531.83;;;-3.91;70.14
61357;BME280;47227;46.752;23.576;2024-01-30T00:10:30;98529.89;;;-3.95;70.40
61357;BME280;47227;46.752;23.576;2024-01-30T00:12:59;98532.17;;;-3.99;72.19
61357;BME280;47227;46.752;23.576;2024-01-30T00:15:27;98541.79;;;-3.99;69.95
61357;BME280;47227;46.752;23.576;2024-01-30T00:17:56;98543.54;;;-4.00;69.50
61357;BME280;47227;46.752;23.576;2024-01-30T00:20:25;98546.76;;;-4.02;69.09
61357;BME280;47227;46.752;23.576;2024-01-30T00:22:53;98545.08;;;-4.05;68.63
61357;BME280;47227;46.752;23.576;2024-01-30T00:25:22;98542.64;;;-4.07;69.33
61357;BME280;47227;46.752;23.576;2024-01-30T00:27:50;98541.00;;;-4.08;68.64
61357;BME280;47227;46.752;23.576;2024-01-30T00:30:20;98541.09;;;-4.07;68.88
61357;BME280;47227;46.752;23.576;2024-01-30T00:32:48;98536.54;;;-4.05;69.01
61357;BME280;47227;46.752;23.576;2024-01-30T00:35:17;98533.18;;;-4.03;69.34
61357;BME280;47227;46.752;23.576;2024-01-30T00:37:45;98530.39;;;-4.00;68.65
61357;BME280;47227;46.752;23.576;2024-01-30T00:40:14;98536.67;;;-3.97;68.98
61357;BME280;47227;46.752;23.576;2024-01-30T00:42:44;98540.55;;;-3.94;68.68
61357;BME280;47227;46.752;23.576;2024-01-30T00:45:16;98542.33;;;-3.89;68.42
61357;BME280;47227;46.752;23.576;2024-01-30T00:47:45;98539.30;;;-3.85;68.82
61357;BME280;47227;46.752;23.576;2024-01-30T00:50:14;98544.43;;;-3.80;68.61
61357;BME280;47227;46.752;23.576;2024-01-30T00:52:42;98538.38;;;-3.76;68.27
61357;BME280;47227;46.752;23.576;2024-01-30T00:55:13;98536.91;;;-3.72;68.54
61357;BME280;47227;46.752;23.576;2024-01-30T00:57:42;98538.44;;;-3.72;68.36
61357;BME280;47227;46.752;23.576;2024-01-30T01:00:14;98541.73;;;-3.70;68.00
61357;BME280;47227;46.752;23.576;2024-01-30T01:02:45;98539.37;;;-3.65;67.70
61357;BME280;47227;46.752;23.576;2024-01-30T01:05:14;98543.18;;;-3.60;67.85
61357;BME280;47227;46.752;23.576;2024-01-30T01:07:42;98543.48;;;-3.57;67.80
61357;BME280;47227;46.752;23.576;2024-01-30T01:10:11;98541.96;;;-3.55;67.87
61357;BME280;47227;46.752;23.576;2024-01-30T01:12:42;98541.73;;;-3.54;67.59
61357;BME280;47227;46.752;23.576;2024-01-30T01:15:10;98541.88;;;-3.61;68.80
61357;BME280;47227;46.752;23.576;2024-01-30T01:17:39;98543.23;;;-3.74;69.65
61357;BME280;47227;46.752;23.576;2024-01-30T01:20:08;98538.00;;;-3.80;68.88
61357;BME280;47227;46.752;23.576;2024-01-30T01:22:38;98529.88;;;-3.84;68.94
61357;BME280;47227;46.752;23.576;2024-01-30T01:25:07;98528.83;;;-3.92;69.86
61357;BME280;47227;46.752;23.576;2024-01-30T01:27:36;98525.85;;;-3.96;69.38
61357;BME280;47227;46.752;23.576;2024-01-30T01:30:10;98526.45;;;-4.00;69.46
61357;BME280;47227;46.752;23.576;2024-01-30T01:32:40;98527.55;;;-4.04;69.57
61357;BME280;47227;46.752;23.576;2024-01-30T01:35:13;98526.63;;;-4.05;69.17
61357;BME280;47227;46.752;23.576;2024-01-30T01:37:41;98528.42;;;-4.07;68.81
61357;BME280;47227;46.752;23.576;2024-01-30T01:40:10;98531.95;;;-4.08;68.29
61357;BME280;47227;46.752;23.576;2024-01-30T01:42:39;98531.77;;;-4.11;68.17
61357;BME280;47227;46.752;23.576;2024-01-30T01:45:08;98526.88;;;-4.15;68.68
61357;BME280;47227;46.752;23.576;2024-01-30T01:47:37;98528.40;;;-4.17;68.31
61357;BME280;47227;46.752;23.576;2024-01-30T01:50:05;98528.27;;;-4.20;68.27
61357;BME280;47227;46.752;23.576;2024-01-30T01:52:34;98532.45;;;-4.24;68.23
61357;BME280;47227;46.752;23.576;2024-01-30T01:55:03;98534.04;;;-4.28;68.19
61357;BME280;47227;46.752;23.576;2024-01-30T01:57:33;98531.71;;;-4.34;69.32
61357;BME280;47227;46.752;23.576;2024-01-30T02:00:02;98532.29;;;-4.40;69.11
61357;BME280;47227;46.752;23.576;2024-01-30T02:02:36;98530.60;;;-4.46;69.04
61357;BME280;47227;46.752;23.576;2024-01-30T02:05:05;98533.09;;;-4.50;68.52
61357;BME280;47227;46.752;23.576;2024-01-30T02:07:34;98532.04;;;-4.55;68.66
61357;BME280;47227;46.752;23.576;2024-01-30T02:10:03;98536.69;;;-4.59;68.17
61357;BME280;47227;46.752;23.576;2024-01-30T02:12:32;98536.89;;;-4.62;68.39
61357;BME280;47227;46.752;23.576;2024-01-30T02:15:00;98542.10;;;-4.66;68.44
61357;BME280;47227;46.752;23.576;2024-01-30T02:17:29;98544.21;;;-4.70;68.84
61357;BME280;47227;46.752;23.576;2024-01-30T02:19:58;98543.64;;;-4.72;68.14
61357;BME280;47227;46.752;23.576;2024-01-30T02:22:26;98541.00;;;-4.73;68.10
61357;BME280;47227;46.752;23.576;2024-01-30T02:24:56;98537.25;;;-4.76;68.08
61357;BME280;47227;46.752;23.576;2024-01-30T02:27:24;98535.96;;;-4.80;68.69
61357;BME280;47227;46.752;23.576;2024-01-30T02:29:53;98538.09;;;-4.84;68.31
61357;BME280;47227;46.752;23.576;2024-01-30T02:32:23;98535.38;;;-4.87;68.18
61357;BME280;47227;46.752;23.576;2024-01-30T02:34:52;98539.71;;;-4.88;67.98
61357;BME280;47227;46.752;23.576;2024-01-30T02:37:20;98538.18;;;-4.91;67.99
61357;BME280;47227;46.752;23.576;2024-01-30T02:39:49;98540.73;;;-4.93;67.81
61357;BME280;47227;46.752;23.576;2024-01-30T02:42:18;98542.32;;;-4.97;67.85
61357;BME280;47227;46.752;23.576;2024-01-30T02:44:47;98547.98;;;-5.01;67.71
61357;BME280;47227;46.752;23.576;2024-01-30T02:47:15;98550.14;;;-5.03;67.98
61357;BME280;47227;46.752;23.576;2024-01-30T02:49:43;98552.64;;;-5.07;68.15
61357;BME280;47227;46.752;23.576;2024-01-30T02:52:12;98556.23;;;-5.13;68.60
61357;BME280;47227;46.752;23.576;2024-01-30T02:54:40;98556.14;;;-5.20;72.74
61357;BME280;47227;46.752;23.576;2024-01-30T02:57:09;98554.94;;;-5.23;73.18
61357;BME280;47227;46.752;23.576;2024-01-30T02:59:38;98555.52;;;-5.27;74.23
61357;BME280;47227;46.752;23.576;2024-01-30T03:02:06;98555.83;;;-5.32;73.52
61357;BME280;47227;46.752;23.576;2024-01-30T03:04:35;98558.61;;;-5.36;73.37
61357;BME280;47227;46.752;23.576;2024-01-30T03:07:03;98558.60;;;-5.38;75.44
61357;BME280;47227;46.752;23.576;2024-01-30T03:09:32;98562.06;;;-5.39;76.21
61357;BME280;47227;46.752;23.576;2024-01-30T03:12:01;98564.04;;;-5.41;74.58
61357;BME280;47227;46.752;23.576;2024-01-30T03:14:31;98560.30;;;-5.45;73.67
61357;BME280;47227;46.752;23.576;2024-01-30T03:16:59;98561.64;;;-5.47;73.19
61357;BME280;47227;46.752;23.576;2024-01-30T03:19:28;98558.89;;;-5.50;74.45
61357;BME280;47227;46.752;23.576;2024-01-30T03:21:56;98556.55;;;-5.53;73.92
61357;BME280;47227;46.752;23.576;2024-01-30T03:24:25;98556.31;;;-5.55;73.06
61357;BME280;47227;46.752;23.576;2024-01-30T03:26:57;98557.06;;;-5.56;72.80
61357;BME280;47227;46.752;23.576;2024-01-30T03:29:26;98553.20;;;-5.57;74.47
61357;BME280;47227;46.752;23.576;2024-01-30T03:31:54;98554.54;;;-5.57;75.49
61357;BME280;47227;46.752;23.576;2024-01-30T03:34:22;98552.26;;;-5.53;74.22
61357;BME280;47227;46.752;23.576;2024-01-30T03:36:51;98551.86;;;-5.49;73.71
61357;BME280;47227;46.752;23.576;2024-01-30T03:39:19;98547.34;;;-5.45;73.56
61357;BME280;47227;46.752;23.576;2024-01-30T03:41:48;98548.31;;;-5.40;74.31
61357;BME280;47227;46.752;23.576;2024-01-30T03:44:16;98545.00;;;-5.36;73.55
61357;BME280;47227;46.752;23.576;2024-01-30T03:46:46;98541.63;;;-5.31;73.38
61357;BME280;47227;46.752;23.576;2024-01-30T03:49:14;98544.27;;;-5.27;74.11
61357;BME280;47227;46.752;23.576;2024-01-30T03:51:43;98543.81;;;-5.25;74.59
61357;BME280;47227;46.752;23.576;2024-01-30T03:54:11;98540.86;;;-5.22;74.22
61357;BME280;47227;46.752;23.576;2024-01-30T03:56:40;98541.33;;;-5.18;74.31
61357;BME280;47227;46.752;23.576;2024-01-30T03:59:08;98538.26;;;-5.18;74.72
61357;BME280;47227;46.752;23.576;2024-01-30T04:01:37;98539.73;;;-5.17;74.23
61357;BME280;47227;46.752;23.576;2024-01-30T04:04:05;98540.23;;;-5.16;73.40
61357;BME280;47227;46.752;23.576;2024-01-30T04:06:34;98540.86;;;-5.13;73.14
61357;BME280;47227;46.752;23.576;2024-01-30T04:09:03;98541.95;;;-5.11;72.83
61357;BME280;47227;46.752;23.576;2024-01-30T04:11:32;98539.84;;;-5.10;72.63
61357;BME280;47227;46.752;23.576;2024-01-30T04:14:00;98542.16;;;-5.12;72.82
61357;BME280;47227;46.752;23.576;2024-01-30T04:16:28;98541.33;;;-5.21;73.13
61357;BME280;47227;46.752;23.576;2024-01-30T04:18:58;98542.81;;;-5.29;72.72
61357;BME280;47227;46.752;23.576;2024-01-30T04:21:26;98544.15;;;-5.34;73.03
61357;BME280;47227;46.752;23.576;2024-01-30T04:23:55;98547.64;;;-5.44;74.00
61357;BME280;47227;46.752;23.576;2024-01-30T04:26:24;98539.98;;;-5.50;72.78
61357;BME280;47227;46.752;23.576;2024-01-30T04:28:53;98541.83;;;-5.55;72.93
61357;BME280;47227;46.752;23.576;2024-01-30T04:31:21;98544.05;;;-5.61;72.77
61357;BME280;47227;46.752;23.576;2024-01-30T04:33:50;98548.57;;;-5.69;72.77
61357;BME280;47227;46.752;23.576;2024-01-30T04:36:19;98546.45;;;-5.73;72.50
61357;BME280;47227;46.752;23.576;2024-01-30T04:38:47;98545.50;;;-5.80;73.50
61357;BME280;47227;46.752;23.576;2024-01-30T04:41:15;98552.71;;;-5.87;74.49
61357;BME280;47227;46.752;23.576;2024-01-30T04:43:44;98553.85;;;-5.95;74.17
61357;BME280;47227;46.752;23.576;2024-01-30T04:46:12;98558.13;;;-6.01;75.59
61357;BME280;47227;46.752;23.576;2024-01-30T04:48:41;98556.63;;;-6.04;75.54
61357;BME280;47227;46.752;23.576;2024-01-30T04:51:10;98555.60;;;-6.07;76.24
61357;BME280;47227;46.752;23.576;2024-01-30T04:53:38;98557.17;;;-6.11;76.81
61357;BME280;47227;46.752;23.576;2024-01-30T04:56:08;98557.38;;;-6.12;76.23
61357;BME280;47227;46.752;23.576;2024-01-30T04:58:36;98558.14;;;-6.10;75.15
61357;BME280;47227;46.752;23.576;2024-01-30T05:01:05;98561.46;;;-6.05;74.82
61357;BME280;47227;46.752;23.576;2024-01-30T05:03:34;98562.40;;;-6.01;74.08
61357;BME280;47227;46.752;23.576;2024-01-30T05:06:03;98559.24;;;-5.97;73.95
61357;BME280;47227;46.752;23.576;2024-01-30T05:08:32;98558.30;;;-5.92;73.80
61357;BME280;47227;46.752;23.576;2024-01-30T05:11:00;98563.89;;;-5.92;75.56
61357;BME280;47227;46.752;23.576;2024-01-30T05:13:30;98559.56;;;-5.93;75.64
61357;BME280;47227;46.752;23.576;2024-01-30T05:16:00;98558.76;;;-5.94;75.63
61357;BME280;47227;46.752;23.576;2024-01-30T05:18:29;98557.82;;;-5.96;76.22
61357;BME280;47227;46.752;23.576;2024-01-30T05:20:58;98554.36;;;-5.94;76.19
61357;BME280;47227;46.752;23.576;2024-01-30T05:23:26;98559.32;;;-5.93;75.57
61357;BME280;47227;46.752;23.576;2024-01-30T05:25:55;98555.05;;;-5.89;75.38
61357;BME280;47227;46.752;23.576;2024-01-30T05:28:26;98555.76;;;-5.87;75.43
61357;BME280;47227;46.752;23.576;2024-01-30T05:30:54;98557.41;;;-5.86;75.43
61357;BME280;47227;46.752;23.576;2024-01-30T05:33:22;98558.73;;;-5.88;76.04
61357;BME280;47227;46.752;23.576;2024-01-30T05:35:51;98560.27;;;-5.91;76.81
61357;BME280;47227;46.752;23.576;2024-01-30T05:38:22;98562.14;;;-5.91;76.97
61357;BME280;47227;46.752;23.576;2024-01-30T05:40:51;98557.48;;;-5.90;76.77
61357;BME280;47227;46.752;23.576;2024-01-30T05:43:19;98561.14;;;-5.89;76.71
61357;BME280;47227;46.752;23.576;2024-01-30T05:45:49;98563.90;;;-5.89;76.39
61357;BME280;47227;46.752;23.576;2024-01-30T05:48:18;98562.73;;;-5.89;76.26
61357;BME280;47227;46.752;23.576;2024-01-30T05:50:46;98569.25;;;-5.88;75.83
61357;BME280;47227;46.752;23.576;2024-01-30T05:53:15;98567.21;;;-5.84;75.37
61357;BME280;47227;46.752;23.576;2024-01-30T05:55:44;98572.40;;;-5.83;75.01
61357;BME280;47227;46.752;23.576;2024-01-30T05:58:12;98576.86;;;-5.83;74.98
61357;BME280;47227;46.752;23.576;2024-01-30T06:00:41;98579.99;;;-5.84;74.62
61357;BME280;47227;46.752;23.576;2024-01-30T06:03:09;98582.30;;;-5.87;74.31
61357;BME280;47227;46.752;23.576;2024-01-30T06:05:38;98587.74;;;-5.89;74.25
61357;BME280;47227;46.752;23.576;2024-01-30T06:08:06;98588.42;;;-5.92;74.13
61357;BME280;47227;46.752;23.576;2024-01-30T06:10:35;98589.30;;;-5.95;73.94
61357;BME280;47227;46.752;23.576;2024-01-30T06:13:04;98593.48;;;-5.99;73.64
61357;BME280;47227;46.752;23.576;2024-01-30T06:15:32;98593.18;;;-6.03;73.67
61357;BME280;47227;46.752;23.576;2024-01-30T06:18:01;98594.44;;;-6.08;74.00
61357;BME280;47227;46.752;23.576;2024-01-30T06:20:29;98593.81;;;-6.15;75.23
61357;BME280;47227;46.752;23.576;2024-01-30T06:22:58;98600.43;;;-6.20;74.78
61357;BME280;47227;46.752;23.576;2024-01-30T06:25:27;98601.08;;;-6.26;76.41
61357;BME280;47227;46.752;23.576;2024-01-30T06:27:55;98599.16;;;-6.31;77.35
61357;BME280;47227;46.752;23.576;2024-01-30T06:30:24;98603.29;;;-6.35;76.66
61357;BME280;47227;46.752;23.576;2024-01-30T06:32:53;98603.42;;;-6.38;76.86
61357;BME280;47227;46.752;23.576;2024-01-30T06:35:21;98608.90;;;-6.38;77.59
61357;BME280;47227;46.752;23.576;2024-01-30T06:37:50;98612.75;;;-6.34;77.01
61357;BME280;47227;46.752;23.576;2024-01-30T06:40:18;98603.61;;;-6.29;77.56
61357;BME280;47227;46.752;23.576;2024-01-30T06:42:47;98608.11;;;-6.21;77.06
61357;BME280;47227;46.752;23.576;2024-01-30T06:45:16;98608.11;;;-6.12;78.02
61357;BME280;47227;46.752;23.576;2024-01-30T06:47:45;98602.48;;;-6.02;77.37
61357;BME280;47227;46.752;23.576;2024-01-30T06:50:13;98604.90;;;-5.94;77.16
61357;BME280;47227;46.752;23.576;2024-01-30T06:52:42;98608.36;;;-5.86;77.13
61357;BME280;47227;46.752;23.576;2024-01-30T06:55:11;98605.48;;;-5.77;76.61
61357;BME280;47227;46.752;23.576;2024-01-30T06:57:39;98602.64;;;-5.66;76.38
61357;BME280;47227;46.752;23.576;2024-01-30T07:00:08;98606.97;;;-5.56;75.89
61357;BME280;47227;46.752;23.576;2024-01-30T07:02:37;98608.12;;;-5.49;75.60
61357;BME280;47227;46.752;23.576;2024-01-30T07:05:06;98611.21;;;-5.44;75.29
61357;BME280;47227;46.752;23.576;2024-01-30T07:07:35;98614.91;;;-5.39;75.12
61357;BME280;47227;46.752;23.576;2024-01-30T07:10:04;98613.52;;;-5.39;75.02
61357;BME280;47227;46.752;23.576;2024-01-30T07:12:33;98616.10;;;-5.39;74.87
61357;BME280;47227;46.752;23.576;2024-01-30T07:15:02;98614.56;;;-5.39;74.69
61357;BME280;47227;46.752;23.576;2024-01-30T07:17:31;98611.48;;;-5.42;74.56
61357;BME280;47227;46.752;23.576;2024-01-30T07:20:00;98611.21;;;-5.44;74.31
61357;BME280;47227;46.752;23.576;2024-01-30T07:22:29;98610.28;;;-5.45;74.42
61357;BME280;47227;46.752;23.576;2024-01-30T07:24:59;98609.40;;;-5.48;74.65
61357;BME280;47227;46.752;23.576;2024-01-30T07:27:27;98611.82;;;-5.51;74.74
61357;BME280;47227;46.752;23.576;2024-01-30T07:29:56;98617.29;;;-5.54;74.60
61357;BME280;47227;46.752;23.576;2024-01-30T07:32:24;98617.08;;;-5.57;74.64
61357;BME280;47227;46.752;23.576;2024-01-30T07:34:53;98616.45;;;-5.57;75.09
61357;BME280;47227;46.752;23.576;2024-01-30T07:37:35;98619.70;;;-5.58;74.66
61357;BME280;47227;46.752;23.576;2024-01-30T07:40:04;98619.47;;;-5.56;74.38
61357;BME280;47227;46.752;23.576;2024-01-30T07:42:33;98620.95;;;-5.55;74.37
61357;BME280;47227;46.752;23.576;2024-01-30T07:45:01;98616.60;;;-5.54;74.13
61357;BME280;47227;46.752;23.576;2024-01-30T07:47:30;98618.41;;;-5.53;74.23
61357;BME280;47227;46.752;23.576;2024-01-30T07:49:59;98621.93;;;-5.52;74.10
61357;BME280;47227;46.752;23.576;2024-01-30T07:52:28;98621.13;;;-5.50;74.00
61357;BME280;47227;46.752;23.576;2024-01-30T07:54:57;98623.92;;;-5.48;73.87
61357;BME280;47227;46.752;23.576;2024-01-30T07:57:26;98625.73;;;-5.47;73.90
61357;BME280;47227;46.752;23.576;2024-01-30T07:59:54;98620.49;;;-5.45;74.31
61357;BME280;47227;46.752;23.576;2024-01-30T08:02:23;98620.20;;;-5.43;74.12
61357;BME280;47227;46.752;23.576;2024-01-30T08:04:51;98622.42;;;-5.39;74.32
61357;BME280;47227;46.752;23.576;2024-01-30T08:07:20;98624.80;;;-5.36;74.57
61357;BME280;47227;46.752;23.576;2024-01-30T08:09:53;98629.06;;;-5.34;74.15
61357;BME280;47227;46.752;23.576;2024-01-30T08:12:21;98623.89;;;-5.30;73.92
61357;BME280;47227;46.752;23.576;2024-01-30T08:14:50;98628.11;;;-5.26;74.26
61357;BME280;47227;46.752;23.576;2024-01-30T08:17:18;98624.67;;;-5.23;74.01
61357;BME280;47227;46.752;23.576;2024-01-30T08:19:47;98622.21;;;-5.18;73.76
61357;BME280;47227;46.752;23.576;2024-01-30T08:22:16;98618.86;;;-5.14;74.13
61357;BME280;47227;46.752;23.576;2024-01-30T08:24:44;98620.00;;;-5.10;73.69
61357;BME280;47227;46.752;23.576;2024-01-30T08:27:13;98620.78;;;-5.06;73.66
61357;BME280;47227;46.752;23.576;2024-01-30T08:29:42;98623.20;;;-5.01;73.90
61357;BME280;47227;46.752;23.576;2024-01-30T08:32:10;98625.66;;;-4.96;73.63
61357;BME280;47227;46.752;23.576;2024-01-30T08:34:39;98619.44;;;-4.92;73.60
61357;BME280;47227;46.752;23.576;2024-01-30T08:37:07;98619.69;;;-4.87;73.39
61357;BME280;47227;46.752;23.576;2024-01-30T08:39:37;98616.30;;;-4.83;73.44
61357;BME280;47227;46.752;23.576;2024-01-30T08:42:06;98617.44;;;-4.75;73.43
61357;BME280;47227;46.752;23.576;2024-01-30T08:44:36;98619.08;;;-4.69;73.59
61357;BME280;47227;46.752;23.576;2024-01-30T08:47:05;98617.23;;;-4.64;73.51
61357;BME280;47227;46.752;23.576;2024-01-30T08:49:34;98614.95;;;-4.58;73.20
61357;BME280;47227;46.752;23.576;2024-01-30T08:52:03;98613.91;;;-4.51;73.03
61357;BME280;47227;46.752;23.576;2024-01-30T08:54:32;98610.29;;;-4.45;73.02
61357;BME280;47227;46.752;23.576;2024-01-30T08:57:02;98609.16;;;-4.38;72.92
61357;BME280;47227;46.752;23.576;2024-01-30T08:59:32;98609.81;;;-4.32;73.06
61357;BME280;47227;46.752;23.576;2024-01-30T09:02:02;98610.98;;;-4.26;72.93
61357;BME280;47227;46.752;23.576;2024-01-30T09:04:42;98613.17;;;-4.20;72.92
61357;BME280;47227;46.752;23.576;2024-01-30T09:07:11;98610.86;;;-4.13;72.76
61357;BME280;47227;46.752;23.576;2024-01-30T09:09:41;98613.84;;;-4.06;72.83
61357;BME280;47227;46.752;23.576;2024-01-30T09:12:10;98614.30;;;-3.98;72.92
61357;BME280;47227;46.752;23.576;2024-01-30T09:14:40;98610.33;;;-3.86;72.69
61357;BME280;47227;46.752;23.576;2024-01-30T09:17:09;98611.33;;;-3.75;72.72
61357;BME280;47227;46.752;23.576;2024-01-30T09:19:38;98610.42;;;-3.64;72.81
61357;BME280;47227;46.752;23.576;2024-01-30T09:22:07;98606.97;;;-3.56;72.63
61357;BME280;47227;46.752;23.576;2024-01-30T09:24:36;98602.85;;;-3.47;72.84
61357;BME280;47227;46.752;23.576;2024-01-30T09:27:04;98602.16;;;-3.39;72.32
61357;BME280;47227;46.752;23.576;2024-01-30T09:29:33;98597.77;;;-3.30;72.10
61357;BME280;47227;46.752;23.576;2024-01-30T09:32:05;98597.17;;;-3.19;72.12
61357;BME280;47227;46.752;23.576;2024-01-30T09:34:34;98592.98;;;-3.07;72.26
61357;BME280;47227;46.752;23.576;2024-01-30T09:37:04;98591.71;;;-2.96;72.02
61357;BME280;47227;46.752;23.576;2024-01-30T09:39:33;98589.64;;;-2.86;71.72
61357;BME280;47227;46.752;23.576;2024-01-30T09:42:12;98585.69;;;-2.73;71.51
61357;BME280;47227;46.752;23.576;2024-01-30T09:44:46;98578.90;;;-2.59;71.73
61357;BME280;47227;46.752;23.576;2024-01-30T09:47:17;98580.86;;;-2.46;71.87
61357;BME280;47227;46.752;23.576;2024-01-30T09:49:46;98578.05;;;-2.30;71.22
61357;BME280;47227;46.752;23.576;2024-01-30T09:52:16;98575.95;;;-2.13;71.05
61357;BME280;47227;46.752;23.576;2024-01-30T09:54:48;98573.34;;;-1.88;69.91
61357;BME280;47227;46.752;23.576;2024-01-30T09:57:18;98568.08;;;-1.36;71.47
61357;BME280;47227;46.752;23.576;2024-01-30T09:59:47;98564.17;;;0.15;69.73
61357;BME280;47227;46.752;23.576;2024-01-30T10:02:15;98561.94;;;2.04;60.86
61357;BME280;47227;46.752;23.576;2024-01-30T10:04:44;98555.43;;;3.45;58.77
61357;BME280;47227;46.752;23.576;2024-01-30T10:07:14;98551.38;;;4.96;52.50
61357;BME280;47227;46.752;23.576;2024-01-30T10:09:43;98551.42;;;6.12;55.95
61357;BME280;47227;46.752;23.576;2024-01-30T10:12:12;98551.55;;;7.55;61.14
61357;BME280;47227;46.752;23.576;2024-01-30T10:14:42;98548.33;;;9.02;61.24
61357;BME280;47227;46.752;23.576;2024-01-30T10:17:12;98549.13;;;10.22;48.09
61357;BME280;47227;46.752;23.576;2024-01-30T10:19:55;98550.75;;;10.78;46.00
61357;BME280;47227;46.752;23.576;2024-01-30T10:22:24;98551.55;;;11.50;46.20
61357;BME280;47227;46.752;23.576;2024-01-30T10:24:53;98553.52;;;11.79;35.18
61357;BME280;47227;46.752;23.576;2024-01-30T10:27:28;98558.67;;;11.76;35.76
61357;BME280;47227;46.752;23.576;2024-01-30T10:29:57;98554.16;;;12.12;39.52
61357;BME280;47227;46.752;23.576;2024-01-30T10:32:27;98548.61;;;12.97;39.52
61357;BME280;47227;46.752;23.576;2024-01-30T10:34:56;98548.25;;;13.27;32.23
61357;BME280;47227;46.752;23.576;2024-01-30T10:37:25;98546.27;;;13.07;31.41
61357;BME280;47227;46.752;23.576;2024-01-30T10:39:56;98543.85;;;13.01;31.39
61357;BME280;47227;46.752;23.576;2024-01-30T10:42:31;98539.30;;;13.20;34.58
61357;BME280;47227;46.752;23.576;2024-01-30T10:45:06;98537.53;;;14.01;36.71
61357;BME280;47227;46.752;23.576;2024-01-30T10:47:40;98534.10;;;14.79;35.03
61357;BME280;47227;46.752;23.576;2024-01-30T10:50:09;98535.61;;;15.10;28.93
61357;BME280;47227;46.752;23.576;2024-01-30T10:52:42;98533.52;;;14.84;27.66
61357;BME280;47227;46.752;23.576;2024-01-30T10:55:12;98536.79;;;14.89;30.75
61357;BME280;47227;46.752;23.576;2024-01-30T10:57:42;98537.20;;;15.27;27.91
61357;BME280;47227;46.752;23.576;2024-01-30T11:00:13;98531.70;;;15.65;29.99
61357;BME280;47227;46.752;23.576;2024-01-30T11:02:46;98530.60;;;15.98;29.32
61357;BME280;47227;46.752;23.576;2024-01-30T11:05:23;98524.52;;;16.20;27.46
61357;BME280;47227;46.752;23.576;2024-01-30T11:08:10;98523.65;;;16.39;28.50
61357;BME280;47227;46.752;23.576;2024-01-30T11:10:48;98520.27;;;16.56;29.10
61357;BME280;47227;46.752;23.576;2024-01-30T11:13:18;98515.38;;;16.98;32.01
61357;BME280;47227;46.752;23.576;2024-01-30T11:15:48;98513.97;;;17.14;27.26
61357;BME280;47227;46.752;23.576;2024-01-30T11:18:29;98511.98;;;16.75;27.68
61357;BME280;47227;46.752;23.576;2024-01-30T11:20:59;98514.29;;;15.85;27.06
61357;BME280;47227;46.752;23.576;2024-01-30T11:23:33;98516.77;;;15.01;27.41
61357;BME280;47227;46.752;23.576;2024-01-30T11:26:03;98509.86;;;14.08;28.78
61357;BME280;47227;46.752;23.576;2024-01-30T11:28:33;98507.55;;;13.56;29.51
61357;BME280;47227;46.752;23.576;2024-01-30T11:31:05;98502.08;;;13.32;31.39
61357;BME280;47227;46.752;23.576;2024-01-30T11:33:35;98497.48;;;13.13;32.35
61357;BME280;47227;46.752;23.576;2024-01-30T11:36:04;98496.23;;;12.88;31.51
61357;BME280;47227;46.752;23.576;2024-01-30T11:38:35;98492.77;;;12.53;32.04
61357;BME280;47227;46.752;23.576;2024-01-30T11:41:04;98493.81;;;12.30;33.06
61357;BME280;47227;46.752;23.576;2024-01-30T11:43:33;98489.41;;;12.17;33.62
61357;BME280;47227;46.752;23.576;2024-01-30T11:46:06;98489.16;;;12.06;33.88
61357;BME280;47227;46.752;23.576;2024-01-30T11:48:35;98486.86;;;11.90;33.78
61357;BME280;47227;46.752;23.576;2024-01-30T11:51:05;98482.95;;;11.69;33.63
61357;BME280;47227;46.752;23.576;2024-01-30T11:53:33;98481.54;;;11.57;34.02
61357;BME280;47227;46.752;23.576;2024-01-30T11:56:06;98479.17;;;11.48;33.64
61357;BME280;47227;46.752;23.576;2024-01-30T11:58:34;98478.71;;;11.29;34.57
61357;BME280;47227;46.752;23.576;2024-01-30T12:01:03;98477.48;;;11.22;34.58
61357;BME280;47227;46.752;23.576;2024-01-30T12:03:32;98470.94;;;10.85;33.69
61357;BME280;47227;46.752;23.576;2024-01-30T12:06:02;98470.49;;;10.50;34.13
61357;BME280;47227;46.752;23.576;2024-01-30T12:08:31;98464.91;;;10.42;35.15
61357;BME280;47227;46.752;23.576;2024-01-30T12:11:00;98467.13;;;10.41;35.16
61357;BME280;47227;46.752;23.576;2024-01-30T12:13:33;98467.81;;;10.39;35.88
61357;BME280;47227;46.752;23.576;2024-01-30T12:16:04;98464.23;;;10.41;35.54
61357;BME280;47227;46.752;23.576;2024-01-30T12:18:32;98455.77;;;10.33;35.44
61357;BME280;47227;46.752;23.576;2024-01-30T12:21:01;98450.50;;;10.29;36.06
61357;BME280;47227;46.752;23.576;2024-01-30T12:23:30;98447.14;;;10.21;35.41
61357;BME280;47227;46.752;23.576;2024-01-30T12:25:59;98442.69;;;10.17;35.96
61357;BME280;47227;46.752;23.576;2024-01-30T12:28:28;98437.39;;;10.15;36.10
61357;BME280;47227;46.752;23.576;2024-01-30T12:30:56;98435.86;;;9.82;35.65
61357;BME280;47227;46.752;23.576;2024-01-30T12:33:30;98433.48;;;9.80;36.39
61357;BME280;47227;46.752;23.576;2024-01-30T12:36:04;98429.30;;;9.56;36.13
61357;BME280;47227;46.752;23.576;2024-01-30T12:38:33;98429.13;;;9.17;36.58
61357;BME280;47227;46.752;23.576;2024-01-30T12:41:02;98425.14;;;9.25;37.07
61357;BME280;47227;46.752;23.576;2024-01-30T12:43:31;98426.88;;;9.11;36.82
61357;BME280;47227;46.752;23.576;2024-01-30T12:46:07;98423.99;;;9.01;37.19
61357;BME280;47227;46.752;23.576;2024-01-30T12:48:35;98417.88;;;8.94;37.43
61357;BME280;47227;46.752;23.576;2024-01-30T12:51:04;98421.39;;;8.79;37.91
61357;BME280;47227;46.752;23.576;2024-01-30T12:53:33;98418.85;;;8.85;38.45
61357;BME280;47227;46.752;23.576;2024-01-30T12:56:02;98413.46;;;9.03;38.34
61357;BME280;47227;46.752;23.576;2024-01-30T12:58:31;98415.14;;;9.13;38.64
61357;BME280;47227;46.752;23.576;2024-01-30T13:01:00;98414.38;;;9.28;38.61